sensor_id;sensor_type;location;lat;lon;timestamp;pressure;altitude;pressure_sealevel;temperature;humidity
48386;BME280;34644;47.964;7.982;2022-12-05T00:08:31;96367.28;;;13.96;64.23
48386;BME280;34644;47.964;7.982;2022-12-05T00:15:35;96360.41;;;14.05;64.00
48386;BME280;34644;47.964;7.982;2022-12-05T00:22:35;96374.25;;;14.38;62.59
48386;BME280;34644;47.964;7.982;2022-12-05T00:29:37;96368.19;;;14.53;62.11
48386;BME280;34644;47.964;7.982;2022-12-05T00:36:37;96380.91;;;14.46;62.40
48386;BME280;34644;47.964;7.982;2022-12-05T00:43:38;96385.13;;;14.42;62.43
48386;BME280;34644;47.964;7.982;2022-12-05T00:50:38;96390.97;;;14.39;62.60
48386;BME280;34644;47.964;7.982;2022-12-05T00:57:39;96399.16;;;14.32;62.72
48386;BME280;34644;47.964;7.982;2022-12-05T01:04:39;96398.38;;;14.26;63.04
48386;BME280;34644;47.964;7.982;2022-12-05T01:11:39;96389.59;;;14.16;63.45
48386;BME280;34644;47.964;7.982;2022-12-05T01:18:39;96423.50;;;14.08;63.94
48386;BME280;34644;47.964;7.982;2022-12-05T01:25:40;96428.75;;;13.98;64.55
48386;BME280;34644;47.964;7.982;2022-12-05T01:32:41;96429.28;;;13.95;64.89
48386;BME280;34644;47.964;7.982;2022-12-05T01:39:41;96448.59;;;13.90;64.86
48386;BME280;34644;47.964;7.982;2022-12-05T01:46:49;96453.38;;;13.88;64.85
48386;BME280;34644;47.964;7.982;2022-12-05T01:53:49;96452.03;;;13.86;64.91
48386;BME280;34644;47.964;7.982;2022-12-05T02:00:49;96454.69;;;13.86;64.95
48386;BME280;34644;47.964;7.982;2022-12-05T02:07:50;96454.13;;;13.84;64.83
48386;BME280;34644;47.964;7.982;2022-12-05T02:29:12;96447.81;;;13.90;65.00
48386;BME280;34644;47.964;7.982;2022-12-05T02:36:22;96440.94;;;13.99;64.43
48386;BME280;34644;47.964;7.982;2022-12-05T02:43:28;96430.59;;;13.98;64.77
48386;BME280;34644;47.964;7.982;2022-12-05T02:50:32;96429.28;;;13.95;64.62
48386;BME280;34644;47.964;7.982;2022-12-05T02:57:33;96434.06;;;13.98;64.54
48386;BME280;34644;47.964;7.982;2022-12-05T03:04:34;96444.66;;;13.98;64.58
48386;BME280;34644;47.964;7.982;2022-12-05T03:11:39;96451.00;;;13.97;64.47
48386;BME280;34644;47.964;7.982;2022-12-05T03:18:43;96456.06;;;13.99;64.44
48386;BME280;34644;47.964;7.982;2022-12-05T03:39:54;96449.91;;;13.93;64.29
48386;BME280;34644;47.964;7.982;2022-12-05T03:47:02;96462.38;;;13.92;64.33
48386;BME280;34644;47.964;7.982;2022-12-05T03:54:11;96460.78;;;13.91;64.53
48386;BME280;34644;47.964;7.982;2022-12-05T04:01:14;96469.00;;;13.90;64.33
48386;BME280;34644;47.964;7.982;2022-12-05T04:08:18;96489.13;;;13.86;64.42
48386;BME280;34644;47.964;7.982;2022-12-05T04:15:22;96495.19;;;13.86;64.43
48386;BME280;34644;47.964;7.982;2022-12-05T04:22:23;96502.88;;;13.88;64.45
48386;BME280;34644;47.964;7.982;2022-12-05T04:29:26;96497.59;;;13.93;64.57
48386;BME280;34644;47.964;7.982;2022-12-05T04:36:34;96501.41;;;14.07;63.78
48386;BME280;34644;47.964;7.982;2022-12-05T04:43:38;96510.16;;;14.13;63.96
48386;BME280;34644;47.964;7.982;2022-12-05T04:50:40;96504.06;;;14.07;64.26
48386;BME280;34644;47.964;7.982;2022-12-05T04:57:44;96503.44;;;14.53;63.11
48386;BME280;34644;47.964;7.982;2022-12-05T05:04:47;96502.72;;;14.99;61.51
48386;BME280;34644;47.964;7.982;2022-12-05T05:11:50;96507.22;;;14.83;61.13
48386;BME280;34644;47.964;7.982;2022-12-05T05:18:50;96517.84;;;14.83;61.31
48386;BME280;34644;47.964;7.982;2022-12-05T05:25:51;96541.50;;;15.00;61.78
48386;BME280;34644;47.964;7.982;2022-12-05T05:32:52;96540.66;;;14.84;62.64
48386;BME280;34644;47.964;7.982;2022-12-05T05:39:52;96550.97;;;14.70;62.87
48386;BME280;34644;47.964;7.982;2022-12-05T05:46:52;96545.31;;;14.51;63.33
48386;BME280;34644;47.964;7.982;2022-12-05T05:53:53;96572.06;;;14.44;63.53
48386;BME280;34644;47.964;7.982;2022-12-05T06:00:54;96576.28;;;14.35;63.83
48386;BME280;34644;47.964;7.982;2022-12-05T06:07:54;96604.09;;;14.33;63.89
48386;BME280;34644;47.964;7.982;2022-12-05T06:14:55;96621.84;;;14.32;63.95
48386;BME280;34644;47.964;7.982;2022-12-05T06:21:55;96625.78;;;14.24;64.33
48386;BME280;34644;47.964;7.982;2022-12-05T06:28:56;96625.53;;;14.26;64.09
48386;BME280;34644;47.964;7.982;2022-12-05T06:36:03;96627.94;;;14.27;64.28
48386;BME280;34644;47.964;7.982;2022-12-05T06:43:04;96642.25;;;14.26;64.51
48386;BME280;34644;47.964;7.982;2022-12-05T06:50:05;96625.00;;;14.24;64.34
48386;BME280;34644;47.964;7.982;2022-12-05T06:57:05;96632.41;;;14.22;64.53
48386;BME280;34644;47.964;7.982;2022-12-05T07:04:19;96624.97;;;14.19;64.71
48386;BME280;34644;47.964;7.982;2022-12-05T07:11:20;96617.31;;;14.27;64.26
48386;BME280;34644;47.964;7.982;2022-12-05T07:18:20;96642.56;;;14.35;64.23
48386;BME280;34644;47.964;7.982;2022-12-05T07:25:21;96672.72;;;14.61;63.17
48386;BME280;34644;47.964;7.982;2022-12-05T07:32:22;96645.03;;;14.52;63.75
48386;BME280;34644;47.964;7.982;2022-12-05T07:39:22;96669.16;;;14.51;63.66
48386;BME280;34644;47.964;7.982;2022-12-05T07:46:23;96671.53;;;14.47;63.52
48386;BME280;34644;47.964;7.982;2022-12-05T07:53:23;96680.22;;;14.37;64.13
48386;BME280;34644;47.964;7.982;2022-12-05T08:00:23;96682.31;;;14.35;64.24
48386;BME280;34644;47.964;7.982;2022-12-05T08:07:24;96696.09;;;14.32;64.10
48386;BME280;34644;47.964;7.982;2022-12-05T08:14:24;96695.56;;;14.30;64.21
48386;BME280;34644;47.964;7.982;2022-12-05T08:21:25;96723.34;;;14.27;64.22
48386;BME280;34644;47.964;7.982;2022-12-05T08:28:25;96698.97;;;14.25;64.19
48386;BME280;34644;47.964;7.982;2022-12-05T08:35:25;96699.47;;;14.22;64.30
48386;BME280;34644;47.964;7.982;2022-12-05T08:42:26;96707.69;;;14.21;64.15
48386;BME280;34644;47.964;7.982;2022-12-05T08:49:26;96716.66;;;14.20;64.22
48386;BME280;34644;47.964;7.982;2022-12-05T08:56:27;96706.31;;;14.18;64.27
48386;BME280;34644;47.964;7.982;2022-12-05T09:03:27;96738.38;;;14.17;64.39
48386;BME280;34644;47.964;7.982;2022-12-05T09:10:27;96742.09;;;14.16;64.19
48386;BME280;34644;47.964;7.982;2022-12-05T09:17:28;96743.16;;;14.15;64.45
48386;BME280;34644;47.964;7.982;2022-12-05T09:24:28;96746.31;;;14.11;64.20
48386;BME280;34644;47.964;7.982;2022-12-05T09:31:28;96768.56;;;14.10;64.54
48386;BME280;34644;47.964;7.982;2022-12-05T09:38:29;96771.47;;;14.09;64.23
48386;BME280;34644;47.964;7.982;2022-12-05T09:45:38;96774.66;;;14.11;64.32
48386;BME280;34644;47.964;7.982;2022-12-05T09:59:55;96768.66;;;14.21;64.05
48386;BME280;34644;47.964;7.982;2022-12-05T10:21:12;96764.53;;;14.73;62.52
48386;BME280;34644;47.964;7.982;2022-12-05T10:28:15;96761.22;;;14.93;61.94
48386;BME280;34644;47.964;7.982;2022-12-05T10:35:25;96765.19;;;14.95;61.84
48386;BME280;34644;47.964;7.982;2022-12-05T10:42:27;96769.66;;;14.84;62.31
48386;BME280;34644;47.964;7.982;2022-12-05T10:49:28;96755.25;;;14.75;62.50
48386;BME280;34644;47.964;7.982;2022-12-05T10:56:43;96749.69;;;14.77;62.67
48386;BME280;34644;47.964;7.982;2022-12-05T11:03:43;96751.66;;;14.97;62.02
48386;BME280;34644;47.964;7.982;2022-12-05T11:10:44;96741.56;;;14.94;62.04
48386;BME280;34644;47.964;7.982;2022-12-05T11:17:44;96746.34;;;14.92;62.12
48386;BME280;34644;47.964;7.982;2022-12-05T11:24:45;96738.50;;;15.23;61.43
48386;BME280;34644;47.964;7.982;2022-12-05T11:31:49;96736.59;;;15.97;59.05
48386;BME280;34644;47.964;7.982;2022-12-05T11:38:50;96723.84;;;15.83;59.32
48386;BME280;34644;47.964;7.982;2022-12-05T11:45:53;96729.69;;;15.80;59.42
48386;BME280;34644;47.964;7.982;2022-12-05T12:00:25;96725.38;;;15.74;59.54
48386;BME280;34644;47.964;7.982;2022-12-05T12:07:34;96735.72;;;15.65;60.00
48386;BME280;34644;47.964;7.982;2022-12-05T12:21:57;96740.75;;;15.51;60.64
48386;BME280;34644;47.964;7.982;2022-12-05T12:36:14;96726.31;;;15.32;61.41
48386;BME280;34644;47.964;7.982;2022-12-05T12:43:19;96730.13;;;15.51;60.94
48386;BME280;34644;47.964;7.982;2022-12-05T12:50:25;96734.91;;;15.54;60.70
48386;BME280;34644;47.964;7.982;2022-12-05T12:57:38;96734.34;;;15.37;61.21
48386;BME280;34644;47.964;7.982;2022-12-05T13:04:51;96726.63;;;15.41;61.14
48386;BME280;34644;47.964;7.982;2022-12-05T13:11:52;96726.81;;;15.18;61.85
48386;BME280;34644;47.964;7.982;2022-12-05T13:18:54;96728.91;;;15.06;62.30
48386;BME280;34644;47.964;7.982;2022-12-05T13:25:55;96723.59;;;15.06;62.51
48386;BME280;34644;47.964;7.982;2022-12-05T13:32:57;96720.84;;;14.91;62.91
48386;BME280;34644;47.964;7.982;2022-12-05T13:39:58;96724.63;;;15.00;62.63
48386;BME280;34644;47.964;7.982;2022-12-05T13:47:23;96731.19;;;14.87;63.03
48386;BME280;34644;47.964;7.982;2022-12-05T13:54:25;96738.91;;;14.89;63.39
48386;BME280;34644;47.964;7.982;2022-12-05T14:22:39;96744.13;;;14.73;67.61
48386;BME280;34644;47.964;7.982;2022-12-05T14:36:57;96742.06;;;14.48;69.27
48386;BME280;34644;47.964;7.982;2022-12-05T14:43:58;96751.03;;;14.42;69.50
48386;BME280;34644;47.964;7.982;2022-12-05T14:51:00;96747.84;;;14.40;70.17
48386;BME280;34644;47.964;7.982;2022-12-05T14:58:02;96747.31;;;14.38;70.89
48386;BME280;34644;47.964;7.982;2022-12-05T15:12:32;96752.84;;;14.31;71.32
48386;BME280;34644;47.964;7.982;2022-12-05T15:19:48;96768.19;;;14.29;71.66
48386;BME280;34644;47.964;7.982;2022-12-05T15:33:51;96777.69;;;14.25;72.28
48386;BME280;34644;47.964;7.982;2022-12-05T15:40:53;96780.72;;;14.39;71.41
48386;BME280;34644;47.964;7.982;2022-12-05T15:47:54;96777.22;;;14.65;70.18
48386;BME280;34644;47.964;7.982;2022-12-05T15:55:01;96776.47;;;14.70;70.24
48386;BME280;34644;47.964;7.982;2022-12-05T16:02:25;96798.16;;;14.62;70.50
48386;BME280;34644;47.964;7.982;2022-12-05T16:09:27;96791.97;;;14.56;71.34
48386;BME280;34644;47.964;7.982;2022-12-05T16:16:34;96786.34;;;14.47;71.74
48386;BME280;34644;47.964;7.982;2022-12-05T16:23:35;96793.72;;;14.40;72.42
48386;BME280;34644;47.964;7.982;2022-12-05T16:30:36;96797.22;;;14.46;72.16
48386;BME280;34644;47.964;7.982;2022-12-05T16:37:37;96799.88;;;15.31;68.99
48386;BME280;34644;47.964;7.982;2022-12-05T16:44:53;96804.34;;;15.89;67.17
48386;BME280;34644;47.964;7.982;2022-12-05T16:52:01;96806.53;;;16.13;66.50
48386;BME280;34644;47.964;7.982;2022-12-05T16:59:02;96812.13;;;16.32;66.28
48386;BME280;34644;47.964;7.982;2022-12-05T17:06:03;96811.88;;;16.49;66.05
48386;BME280;34644;47.964;7.982;2022-12-05T17:13:04;96822.53;;;16.43;66.36
48386;BME280;34644;47.964;7.982;2022-12-05T17:20:04;96818.50;;;16.25;67.20
48386;BME280;34644;47.964;7.982;2022-12-05T17:27:07;96823.56;;;16.22;67.55
48386;BME280;34644;47.964;7.982;2022-12-05T17:34:13;96828.56;;;16.08;68.15
48386;BME280;34644;47.964;7.982;2022-12-05T17:41:15;96822.22;;;15.99;68.58
48386;BME280;34644;47.964;7.982;2022-12-05T17:48:16;96825.34;;;15.85;69.20
48386;BME280;34644;47.964;7.982;2022-12-05T17:55:20;96816.50;;;15.74;69.76
48386;BME280;34644;47.964;7.982;2022-12-05T18:02:21;96826.31;;;15.64;70.17
48386;BME280;34644;47.964;7.982;2022-12-05T18:09:21;96826.28;;;15.53;70.55
48386;BME280;34644;47.964;7.982;2022-12-05T18:16:23;96826.22;;;15.43;71.27
48386;BME280;34644;47.964;7.982;2022-12-05T18:23:23;96824.56;;;15.32;71.64
48386;BME280;34644;47.964;7.982;2022-12-05T18:30:23;96832.53;;;15.27;71.80
48386;BME280;34644;47.964;7.982;2022-12-05T18:37:24;96835.66;;;15.13;72.53
48386;BME280;34644;47.964;7.982;2022-12-05T18:44:24;96848.63;;;15.10;72.46
48386;BME280;34644;47.964;7.982;2022-12-05T18:51:25;96851.22;;;14.99;72.70
48386;BME280;34644;47.964;7.982;2022-12-05T18:58:25;96846.41;;;14.91;72.56
48386;BME280;34644;47.964;7.982;2022-12-05T19:05:26;96849.25;;;12.92;59.97
48386;BME280;34644;47.964;7.982;2022-12-05T19:12:26;96857.34;;;13.86;66.38
48386;BME280;34644;47.964;7.982;2022-12-05T19:19:26;96855.41;;;14.03;68.05
48386;BME280;34644;47.964;7.982;2022-12-05T19:26:27;96855.81;;;14.44;67.68
48386;BME280;34644;47.964;7.982;2022-12-05T19:33:34;96864.06;;;14.48;69.07
48386;BME280;34644;47.964;7.982;2022-12-05T19:40:35;96865.91;;;14.47;69.85
48386;BME280;34644;47.964;7.982;2022-12-05T19:47:36;96871.72;;;14.44;70.49
48386;BME280;34644;47.964;7.982;2022-12-05T19:54:37;96871.72;;;14.44;70.79
48386;BME280;34644;47.964;7.982;2022-12-05T20:01:38;96879.38;;;14.41;71.12
48386;BME280;34644;47.964;7.982;2022-12-05T20:08:39;96872.97;;;14.37;71.26
48386;BME280;34644;47.964;7.982;2022-12-05T20:15:39;96882.81;;;14.41;71.32
48386;BME280;34644;47.964;7.982;2022-12-05T20:22:39;96866.19;;;14.51;70.68
48386;BME280;34644;47.964;7.982;2022-12-05T20:29:39;96875.72;;;14.74;70.36
48386;BME280;34644;47.964;7.982;2022-12-05T20:36:40;96864.97;;;14.91;69.73
48386;BME280;34644;47.964;7.982;2022-12-05T20:43:41;96864.16;;;14.91;70.23
48386;BME280;34644;47.964;7.982;2022-12-05T20:50:42;96866.03;;;14.95;70.13
48386;BME280;34644;47.964;7.982;2022-12-05T20:57:42;96870.06;;;14.98;70.07
48386;BME280;34644;47.964;7.982;2022-12-05T21:04:42;96866.78;;;14.53;70.85
48386;BME280;34644;47.964;7.982;2022-12-05T21:11:43;96861.97;;;14.82;69.64
48386;BME280;34644;47.964;7.982;2022-12-05T21:18:44;96847.59;;;14.78;70.24
48386;BME280;34644;47.964;7.982;2022-12-05T21:25:44;96850.56;;;13.12;60.00
48386;BME280;34644;47.964;7.982;2022-12-05T21:32:45;96853.16;;;13.90;64.87
48386;BME280;34644;47.964;7.982;2022-12-05T21:39:45;96854.00;;;13.96;67.33
48386;BME280;34644;47.964;7.982;2022-12-05T21:46:46;96862.50;;;13.98;68.14
48386;BME280;34644;47.964;7.982;2022-12-05T21:53:47;96856.69;;;14.01;68.82
48386;BME280;34644;47.964;7.982;2022-12-05T22:00:48;96852.22;;;14.01;69.02
48386;BME280;34644;47.964;7.982;2022-12-05T22:07:48;96861.41;;;14.48;68.79
48386;BME280;34644;47.964;7.982;2022-12-05T22:14:48;96852.47;;;14.87;68.18
48386;BME280;34644;47.964;7.982;2022-12-05T22:21:48;96847.22;;;14.97;68.27
48386;BME280;34644;47.964;7.982;2022-12-05T22:28:49;96852.00;;;14.95;68.48
48386;BME280;34644;47.964;7.982;2022-12-05T22:35:53;96841.88;;;14.92;68.85
48386;BME280;34644;47.964;7.982;2022-12-05T22:42:55;96839.44;;;14.85;69.50
48386;BME280;34644;47.964;7.982;2022-12-05T22:49:55;96840.72;;;14.77;70.03
48386;BME280;34644;47.964;7.982;2022-12-05T22:56:56;96833.78;;;14.71;70.39
48386;BME280;34644;47.964;7.982;2022-12-05T23:04:00;96823.38;;;14.64;70.72
48386;BME280;34644;47.964;7.982;2022-12-05T23:11:01;96825.16;;;14.59;71.27
48386;BME280;34644;47.964;7.982;2022-12-05T23:18:02;96820.06;;;14.52;71.45
48386;BME280;34644;47.964;7.982;2022-12-05T23:25:03;96806.72;;;14.42;71.36
48386;BME280;34644;47.964;7.982;2022-12-05T23:32:03;96806.69;;;14.37;71.28
48386;BME280;34644;47.964;7.982;2022-12-05T23:39:03;96808.44;;;14.26;71.90
48386;BME280;34644;47.964;7.982;2022-12-05T23:46:04;96803.66;;;14.23;71.92
48386;BME280;34644;47.964;7.982;2022-12-05T23:53:05;96804.97;;;14.20;72.24
